Time;durP1;ratioP1;P1;durP2;ratioP2;P2;SDS_P1;SDS_P2;PMS_P1;PMS_P2;Temp;Humidity;BMP_temperature;BMP_pressure;BME280_temperature;BME280_humidity;BME280_pressure;Samples;Min_cycle;Max_cycle;Signal;HPM_P1;HPM_P2
2023/09/28 00:01:44;;;;;;;;;;;15.30;59.10;;;11.20;100.00;95756.50;4997373;28;19940;-44
2023/09/28 00:04:10;;;;;;;;;;;15.30;59.10;;;11.33;100.00;95761.34;5001269;28;20335;-44
2023/09/28 00:06:35;;;;;;;;;;;15.30;59.20;;;11.45;100.00;95765.63;4997631;28;19948;-47
2023/09/28 00:09:02;;;;;;;;;;;15.50;59.50;;;11.49;100.00;95762.16;4996390;28;19909;-44
2023/09/28 00:11:27;;;;;;;;;;;15.50;59.50;;;11.55;100.00;95768.28;4994789;28;19917;-43
2023/09/28 00:13:53;;;;;;;;;;;15.50;59.60;;;11.59;100.00;95766.69;5002639;28;19913;-44
2023/09/28 00:16:19;;;;;;;;;;;15.60;59.60;;;11.58;100.00;95763.22;5003369;28;19909;-46
2023/09/28 00:18:44;;;;;;;;;;;15.70;59.60;;;11.58;100.00;95763.22;4998990;28;20384;-46
2023/09/28 00:21:10;;;;;;;;;;;15.70;59.50;;;11.63;100.00;95761.66;4994797;28;20284;-51
2023/09/28 00:23:36;;;;;;;;;;;15.70;59.60;;;11.62;100.00;95763.50;5003995;28;20393;-44
2023/09/28 00:26:02;;;;;;;;;;;15.80;59.50;;;11.62;100.00;95766.16;5006624;28;19913;-44
2023/09/28 00:28:28;;;;;;;;;;;15.80;59.50;;;11.61;100.00;95769.91;5003082;28;19956;-44
2023/09/28 00:30:55;;;;;;;;;;;15.80;59.50;;;11.59;100.00;95758.69;5008144;28;20008;-46
2023/09/28 00:33:20;;;;;;;;;;;15.80;59.50;;;11.59;100.00;95761.34;5005119;28;20348;-44
2023/09/28 00:35:46;;;;;;;;;;;15.80;59.50;;;11.63;100.00;95777.66;5003280;28;19963;-45
2023/09/28 00:38:12;;;;;;;;;;;15.80;59.60;;;11.63;100.00;95767.78;5003042;28;20364;-44
2023/09/28 00:40:41;;;;;;;;;;;15.80;59.60;;;11.65;100.00;95770.97;5007100;28;19961;-45
2023/09/28 00:43:07;;;;;;;;;;;15.80;59.60;;;11.64;100.00;95777.38;5001648;28;19921;-45
2023/09/28 00:45:33;;;;;;;;;;;15.80;59.70;;;11.61;100.00;95775.25;5001411;28;20368;-44
2023/09/28 00:48:04;;;;;;;;;;;15.80;59.60;;;11.57;100.00;95763.50;5009104;28;20467;-44
2023/09/28 00:50:33;;;;;;;;;;;15.90;59.70;;;11.55;100.00;95773.63;5013655;28;20135;-45
2023/09/28 00:53:10;;;;;;;;;;;15.90;59.70;;;11.53;100.00;95773.09;5006061;28;19916;-45
2023/09/28 00:55:37;;;;;;;;;;;15.80;59.70;;;11.54;100.00;95778.16;4999509;28;19916;-50
2023/09/28 00:58:05;;;;;;;;;;;15.90;59.70;;;11.55;100.00;95768.28;5010996;28;19935;-44
2023/09/28 01:00:33;;;;;;;;;;;15.90;59.70;;;11.61;100.00;95777.09;5007930;28;20348;-44
2023/09/28 01:03:05;;;;;;;;;;;15.80;59.80;;;11.65;100.00;95778.97;5010606;28;19920;-44
2023/09/28 01:05:40;;;;;;;;;;;15.90;59.90;;;11.74;100.00;95779.25;5001297;28;19978;-44
2023/09/28 01:08:21;;;;;;;;;;;15.80;59.90;;;11.81;100.00;95780.59;5013620;28;20388;-44
2023/09/28 01:10:47;;;;;;;;;;;15.90;60.10;;;11.79;100.00;95779.25;5009163;28;19933;-44
2023/09/28 01:13:20;;;;;;;;;;;15.90;60.10;;;11.77;100.00;95781.38;5017949;28;20354;-44
2023/09/28 01:15:49;;;;;;;;;;;15.90;60.10;;;11.79;100.00;95784.59;5016322;28;19909;-44
2023/09/28 01:18:18;;;;;;;;;;;16.00;60.10;;;11.78;100.00;95782.97;5015428;28;19995;-44
2023/09/28 01:20:45;;;;;;;;;;;16.00;60.10;;;11.74;100.00;95781.91;5017367;28;19940;-45
2023/09/28 01:23:11;;;;;;;;;;;16.00;60.10;;;11.74;100.00;95784.59;5013942;28;20360;-45
2023/09/28 01:25:38;;;;;;;;;;;16.00;60.10;;;11.72;100.00;95779.53;5017404;28;19948;-44
2023/09/28 01:28:06;;;;;;;;;;;16.00;61.00;;;11.75;100.00;95789.66;5005261;28;19921;-44
2023/09/28 01:30:33;;;;;;;;;;;16.00;60.20;;;11.76;100.00;95777.91;5015002;28;20318;-44
2023/09/28 01:32:59;;;;;;;;;;;16.00;60.20;;;11.72;100.00;95782.19;5017615;28;20390;-44
2023/09/28 01:35:26;;;;;;;;;;;16.00;60.20;;;11.70;100.00;95773.66;5016174;28;19953;-45
2023/09/28 01:38:09;;;;;;;;;;;16.00;60.20;;;11.78;100.00;95772.28;5014131;28;20310;-44
2023/09/28 01:40:35;;;;;;;;;;;16.00;60.30;;;11.78;100.00;95775.78;5005558;28;19921;-44
2023/09/28 01:43:01;;;;;;;;;;;16.00;60.40;;;11.76;100.00;95785.91;4992560;28;19917;-44
2023/09/28 01:45:27;;;;;;;;;;;16.00;60.40;;;11.74;100.00;95785.38;5008871;28;20303;-45
2023/09/28 01:47:53;;;;;;;;;;;16.00;60.40;;;11.73;100.00;95788.31;5007026;28;19914;-44
2023/09/28 01:50:19;;;;;;;;;;;16.00;60.50;;;11.72;100.00;95790.19;5013646;28;20294;-45
2023/09/28 01:52:44;;;;;;;;;;;16.00;60.40;;;11.72;100.00;95787.53;5005426;28;19913;-44
2023/09/28 01:55:10;;;;;;;;;;;16.00;60.40;;;11.73;100.00;95786.44;5013621;28;19909;-44
2023/09/28 01:57:36;;;;;;;;;;;16.00;60.40;;;11.71;100.00;95791.25;5006818;28;19955;-44
2023/09/28 02:00:20;;;;;;;;;;;16.00;60.40;;;11.70;100.00;95786.97;4997876;28;20004;-45
2023/09/28 02:02:54;;;;;;;;;;;16.00;60.50;;;11.75;100.00;95788.84;4995471;28;20394;-47
2023/09/28 02:05:26;;;;;;;;;;;16.00;60.50;;;11.73;100.00;95786.44;5010027;28;19987;-45
2023/09/28 02:07:51;;;;;;;;;;;16.00;60.60;;;11.74;100.00;95785.38;5013926;28;20002;-45
2023/09/28 02:10:17;;;;;;;;;;;16.00;60.70;;;11.78;100.00;95780.31;5006042;28;20450;-44
2023/09/28 02:12:44;;;;;;;;;;;16.10;60.90;;;11.80;100.00;95780.84;5012146;28;19909;-45
2023/09/28 02:15:14;;;;;;;;;;;16.00;60.80;;;11.81;100.00;95785.09;4987707;28;20291;-46
2023/09/28 02:17:41;;;;;;;;;;;16.10;60.90;;;11.83;100.00;95788.31;5006333;28;19916;-44
2023/09/28 02:20:09;;;;;;;;;;;16.10;61.00;;;11.85;100.00;95788.91;5011016;28;19935;-47
2023/09/28 02:22:48;;;;;;;;;;;16.10;60.90;;;11.82;100.00;95790.19;5009323;28;19921;-46
2023/09/28 02:25:17;;;;;;;;;;;16.10;60.90;;;11.81;100.00;95793.13;5009793;28;19917;-45
2023/09/28 02:27:48;;;;;;;;;;;16.10;60.90;;;11.77;100.00;95786.72;5013301;28;19928;-44
2023/09/28 02:30:17;;;;;;;;;;;16.10;60.90;;;11.74;100.00;95782.72;5001340;28;19918;-44
2023/09/28 02:32:44;;;;;;;;;;;16.10;60.90;;;11.78;100.00;95788.31;5012432;28;19916;-44
2023/09/28 02:35:14;;;;;;;;;;;16.10;60.90;;;11.72;100.00;95784.88;5013164;28;19909;-47
2023/09/28 02:37:42;;;;;;;;;;;16.10;61.00;;;11.76;100.00;95790.47;5005043;28;19963;-44
2023/09/28 02:40:09;;;;;;;;;;;16.10;61.00;;;11.77;100.00;95792.84;5009688;28;20439;-45
2023/09/28 02:42:35;;;;;;;;;;;16.10;61.00;;;11.75;100.00;95803.00;5011560;28;19913;-45
2023/09/28 02:45:02;;;;;;;;;;;16.10;61.00;;;11.75;100.00;95805.69;5002520;28;19960;-47
2023/09/28 02:47:28;;;;;;;;;;;16.10;61.10;;;11.75;100.00;95800.34;5003110;28;20269;-45
2023/09/28 02:49:54;;;;;;;;;;;16.10;61.10;;;11.75;100.00;95800.34;5011100;28;19916;-45
2023/09/28 02:52:20;;;;;;;;;;;16.10;61.20;;;11.71;100.00;95799.25;4997709;28;19916;-47
2023/09/28 02:54:46;;;;;;;;;;;16.10;61.20;;;11.71;100.00;95809.13;5009954;28;19909;-46
2023/09/28 02:57:13;;;;;;;;;;;16.00;61.10;;;11.72;100.00;95805.38;5011303;28;20378;-49
2023/09/28 02:59:38;;;;;;;;;;;16.10;61.30;;;11.71;100.00;95803.78;5002601;28;19917;-44
2023/09/28 03:02:05;;;;;;;;;;;16.10;61.30;;;11.72;100.00;95798.19;5011742;28;19913;-45
2023/09/28 03:04:31;;;;;;;;;;;16.10;61.30;;;11.69;100.00;95800.56;5001545;28;19943;-45
2023/09/28 03:06:58;;;;;;;;;;;16.10;61.30;;;11.70;100.00;95796.88;5010156;28;19913;-45
2023/09/28 03:09:24;;;;;;;;;;;16.10;61.40;;;11.68;100.00;95794.44;5010853;28;19917;-47
2023/09/28 03:11:50;;;;;;;;;;;16.10;61.50;;;11.70;100.00;95795.00;5004383;28;19952;-44
2023/09/28 03:14:16;;;;;;;;;;;16.10;61.50;;;11.67;100.00;95790.19;5011407;28;20004;-44
2023/09/28 03:16:42;;;;;;;;;;;16.10;61.50;;;11.67;100.00;95798.19;5003760;28;19917;-46
2023/09/28 03:19:08;;;;;;;;;;;16.00;61.50;;;11.73;100.00;95802.47;5006688;28;19908;-45
2023/09/28 03:21:35;;;;;;;;;;;16.10;61.60;;;11.71;100.00;95801.13;5010709;28;20391;-44
2023/09/28 03:24:01;;;;;;;;;;;16.10;61.70;;;11.76;100.00;95801.13;5009351;28;20011;-47
2023/09/28 03:26:30;;;;;;;;;;;16.10;61.70;;;11.81;100.00;95795.78;5003858;28;20373;-44
2023/09/28 03:28:59;;;;;;;;;;;16.10;62.50;;;11.79;100.00;95801.41;5005710;28;19909;-48
2023/09/28 03:31:29;;;;;;;;;;;16.10;61.70;;;11.78;100.00;95805.16;5005769;28;19963;-45
2023/09/28 03:33:55;;;;;;;;;;;16.10;61.70;;;11.77;100.00;95800.84;4999295;28;19909;-47
2023/09/28 03:36:21;;;;;;;;;;;16.10;61.70;;;11.78;100.00;95807.00;5003502;28;19909;-46
2023/09/28 03:38:48;;;;;;;;;;;16.20;61.80;;;11.79;100.00;95803.28;4999107;28;19956;-48
2023/09/28 03:41:14;;;;;;;;;;;16.20;61.80;;;11.82;100.00;95808.09;5005846;28;20366;-45
2023/09/28 03:43:44;;;;;;;;;;;16.20;61.80;;;11.86;100.00;95805.72;4996451;28;19909;-45
2023/09/28 03:46:11;;;;;;;;;;;16.20;61.90;;;11.89;100.00;95802.50;4999205;28;20013;-45
2023/09/28 03:48:37;;;;;;;;;;;16.20;61.90;;;11.93;100.00;95803.56;5008016;28;19916;-46
2023/09/28 03:51:03;;;;;;;;;;;16.30;62.10;;;11.91;100.00;95801.19;5003470;28;19963;-47
2023/09/28 03:53:31;;;;;;;;;;;16.30;62.00;;;11.94;100.00;95808.66;4994829;28;20339;-47
2023/09/28 03:55:56;;;;;;;;;;;16.30;62.00;;;11.89;100.00;95805.97;4999360;28;20340;-45
2023/09/28 03:58:22;;;;;;;;;;;16.30;61.90;;;11.92;100.00;95799.31;5001134;28;19940;-45
2023/09/28 04:00:48;;;;;;;;;;;16.30;61.90;;;11.94;100.00;95794.47;4997283;28;19945;-45
2023/09/28 04:03:14;;;;;;;;;;;16.30;61.90;;;11.95;100.00;95790.75;4996375;28;19921;-48
2023/09/28 04:05:40;;;;;;;;;;;16.30;61.90;;;11.98;100.00;95798.22;5002128;28;19909;-45
2023/09/28 04:08:07;;;;;;;;;;;16.30;61.90;;;11.95;100.00;95791.56;4996137;28;19913;-45
2023/09/28 04:10:33;;;;;;;;;;;16.30;62.00;;;11.95;100.00;95788.88;4994697;28;19913;-48
2023/09/28 04:13:03;;;;;;;;;;;16.30;62.00;;;11.95;100.00;95793.44;5010297;28;19916;-44
2023/09/28 04:15:30;;;;;;;;;;;16.30;62.00;;;11.98;100.00;95806.25;5010027;28;20429;-46
2023/09/28 04:17:56;;;;;;;;;;;16.30;62.10;;;11.97;100.00;95810.78;5002751;28;19932;-45
2023/09/28 04:20:21;;;;;;;;;;;16.30;62.10;;;12.03;100.00;95824.91;5010685;28;20375;-46
2023/09/28 04:22:47;;;;;;;;;;;16.30;62.10;;;12.07;100.00;95822.53;5011480;28;19963;-44
2023/09/28 04:25:13;;;;;;;;;;;16.30;62.20;;;12.03;100.00;95815.06;5010859;28;20426;-44
2023/09/28 04:27:39;;;;;;;;;;;16.40;62.30;;;12.02;100.00;95818.78;5009771;28;19917;-44
2023/09/28 04:30:06;;;;;;;;;;;16.40;62.30;;;12.02;100.00;95820.66;4999720;28;20378;-44
2023/09/28 04:32:32;;;;;;;;;;;16.40;62.20;;;12.00;100.00;95809.44;5010672;28;20012;-46
2023/09/28 04:34:58;;;;;;;;;;;16.40;62.20;;;11.98;100.00;95814.25;4998123;28;19917;-44
2023/09/28 04:37:26;;;;;;;;;;;16.30;62.10;;;11.92;100.00;95813.44;4994762;28;19909;-50
2023/09/28 04:39:53;;;;;;;;;;;16.30;62.00;;;11.86;100.00;95817.19;5011493;23;20295;-48
2023/09/28 04:42:20;;;;;;;;;;;16.30;62.00;;;11.86;100.00;95813.72;5004002;28;19917;-46
2023/09/28 04:44:46;;;;;;;;;;;16.30;62.10;;;11.82;100.00;95822.22;5009937;28;19909;-46
2023/09/28 04:47:14;;;;;;;;;;;16.30;62.20;;;11.85;100.00;95825.47;5009529;28;19909;-49
2023/09/28 04:49:41;;;;;;;;;;;16.20;62.20;;;11.86;100.00;95827.84;5009179;28;20338;-46
2023/09/28 04:52:07;;;;;;;;;;;16.20;62.20;;;11.86;100.00;95827.06;4990281;28;19933;-46
2023/09/28 04:54:33;;;;;;;;;;;16.20;62.20;;;11.81;100.00;95817.97;4991207;28;19913;-50
2023/09/28 04:56:59;;;;;;;;;;;16.20;62.30;;;11.73;100.00;95829.16;4990642;28;20015;-46
2023/09/28 04:59:25;;;;;;;;;;;16.20;62.30;;;11.71;100.00;95828.59;4990046;28;19909;-47
2023/09/28 05:01:51;;;;;;;;;;;16.20;62.30;;;11.70;100.00;95829.69;4990299;28;19913;-46
2023/09/28 05:04:17;;;;;;;;;;;16.20;62.30;;;11.64;100.00;95830.75;4990269;28;20330;-46
2023/09/28 05:06:43;;;;;;;;;;;16.10;62.30;;;11.65;100.00;95826.19;4991572;28;19913;-47
2023/09/28 05:09:09;;;;;;;;;;;16.10;62.30;;;11.59;100.00;95828.06;4991107;28;19916;-48
2023/09/28 05:11:35;;;;;;;;;;;16.10;62.30;;;11.61;100.00;95833.94;4989443;28;20022;-46
2023/09/28 05:14:01;;;;;;;;;;;16.10;62.40;;;11.62;100.00;95834.72;4991200;28;20388;-46
2023/09/28 05:16:28;;;;;;;;;;;16.00;62.40;;;11.56;100.00;95836.59;4995550;28;19940;-47
2023/09/28 05:18:55;;;;;;;;;;;16.00;62.40;;;11.60;100.00;95829.69;4994135;28;19974;-47
2023/09/28 05:21:21;;;;;;;;;;;16.00;62.40;;;11.50;100.00;95826.97;4988936;28;20028;-45
2023/09/28 05:23:46;;;;;;;;;;;16.00;62.50;;;11.54;100.00;95834.19;4994848;28;20015;-45
2023/09/28 05:26:12;;;;;;;;;;;16.00;62.60;;;11.61;100.00;95833.13;4993953;28;20367;-47
2023/09/28 05:28:38;;;;;;;;;;;16.00;62.60;;;11.60;100.00;95835.00;4994548;28;19909;-51
2023/09/28 05:31:04;;;;;;;;;;;16.00;62.70;;;11.59;100.00;95841.38;4992270;28;19909;-48
2023/09/28 05:33:29;;;;;;;;;;;16.00;62.70;;;11.64;100.00;95852.09;4993132;28;20007;-49
2023/09/28 05:35:56;;;;;;;;;;;16.00;62.80;;;11.66;100.00;95859.81;4994071;28;19960;-46
2023/09/28 05:38:22;;;;;;;;;;;16.00;62.80;;;11.69;100.00;95859.28;4996728;28;19909;-48
2023/09/28 05:40:48;;;;;;;;;;;16.00;62.80;;;11.67;100.00;95864.09;4991082;28;19941;-49
2023/09/28 05:43:13;;;;;;;;;;;16.00;62.80;;;11.57;100.00;95865.69;4993819;28;20671;-47
2023/09/28 05:45:39;;;;;;;;;;;16.00;62.70;;;11.55;100.00;95864.34;4990460;28;19953;-48
2023/09/28 05:48:05;;;;;;;;;;;16.00;62.80;;;11.46;100.00;95868.59;4993351;28;20409;-46
2023/09/28 05:50:31;;;;;;;;;;;16.00;62.70;;;11.45;100.00;95861.66;4986975;28;19910;-50
2023/09/28 05:52:57;;;;;;;;;;;16.00;62.70;;;11.42;100.00;95862.97;4982928;28;19909;-49
2023/09/28 05:55:25;;;;;;;;;;;16.00;62.70;;;11.46;100.00;95874.72;4993085;28;20320;-49
2023/09/28 05:57:52;;;;;;;;;;;16.00;62.80;;;11.53;100.00;95869.94;4995561;28;20011;-49
2023/09/28 06:00:19;;;;;;;;;;;16.00;63.50;;;11.61;100.00;95865.16;5007328;28;19916;-53
2023/09/28 06:02:44;;;;;;;;;;;16.10;62.70;;;11.67;100.00;95874.78;4992821;28;19917;-53
2023/09/28 06:05:11;;;;;;;;;;;16.10;62.80;;;11.68;100.00;95866.50;4993066;28;19932;-51
2023/09/28 06:07:37;;;;;;;;;;;16.20;62.80;;;11.73;100.00;95873.72;4988448;28;19976;-48
2023/09/28 06:10:03;;;;;;;;;;;16.20;62.70;;;11.77;100.00;95866.78;4991100;28;19920;-48
2023/09/28 06:12:29;;;;;;;;;;;16.30;62.80;;;11.82;100.00;95870.25;4992429;28;19996;-53
2023/09/28 06:14:55;;;;;;;;;;;16.40;62.70;;;11.85;100.00;95862.84;4988666;28;20008;-48
2023/09/28 06:17:23;;;;;;;;;;;16.50;62.70;;;11.91;100.00;95869.75;4998881;28;20410;-51
2023/09/28 06:19:49;;;;;;;;;;;16.60;62.70;;;12.01;100.00;95861.78;4992595;28;20003;-48
2023/09/28 06:22:14;;;;;;;;;;;16.70;62.70;;;12.10;100.00;95859.38;4992325;28;19982;-48
2023/09/28 06:24:40;;;;;;;;;;;16.70;62.60;;;12.23;100.00;95856.16;4993158;28;19917;-48
2023/09/28 06:27:06;;;;;;;;;;;16.90;62.50;;;12.33;100.00;95855.34;4992423;28;19916;-49
2023/09/28 06:29:32;;;;;;;;;;;17.00;62.40;;;12.44;100.00;95862.28;4989394;28;20218;-47
2023/09/28 06:31:59;;;;;;;;;;;17.10;62.30;;;12.55;100.00;95863.88;4991100;28;19917;-48
2023/09/28 06:34:25;;;;;;;;;;;17.30;62.40;;;12.68;100.00;95868.66;4992049;28;20385;-48
2023/09/28 06:36:52;;;;;;;;;;;17.40;62.20;;;12.81;100.00;95874.50;4994018;28;19910;-49
2023/09/28 06:39:18;;;;;;;;;;;17.60;62.20;;;12.94;100.00;95877.44;4992817;28;19996;-49
2023/09/28 06:41:44;;;;;;;;;;;17.70;62.10;;;13.08;100.00;95887.53;4991464;28;19932;-48
2023/09/28 06:44:10;;;;;;;;;;;17.90;62.00;;;13.23;100.00;95892.03;4992887;28;19916;-48
2023/09/28 06:46:37;;;;;;;;;;;18.10;62.00;;;13.38;100.00;95902.69;4992024;28;19913;-51
2023/09/28 06:49:05;;;;;;;;;;;18.20;61.80;;;13.49;100.00;95903.47;4992811;28;20410;-48
2023/09/28 06:51:32;;;;;;;;;;;18.40;61.70;;;13.64;100.00;95903.38;4991586;28;19913;-51
2023/09/28 06:53:59;;;;;;;;;;;18.50;61.60;;;13.77;100.00;95905.44;4992740;28;20387;-47
2023/09/28 06:56:26;;;;;;;;;;;18.70;61.40;;;13.89;100.00;95905.91;4992482;28;19917;-47
2023/09/28 06:58:53;;;;;;;;;;;18.80;61.20;;;14.03;100.00;95903.41;4991773;28;20012;-47
2023/09/28 07:01:19;;;;;;;;;;;19.00;61.00;;;14.40;100.00;95912.00;4992076;28;19917;-48
2023/09/28 07:03:45;;;;;;;;;;;19.50;60.70;;;14.74;100.00;95912.78;5003555;28;19937;-50
2023/09/28 07:06:12;;;;;;;;;;;20.00;60.50;;;15.00;100.00;95909.84;4993432;28;20347;-50
2023/09/28 07:08:38;;;;;;;;;;;20.30;60.10;;;15.26;100.00;95907.69;4992466;28;19910;-49
2023/09/28 07:11:04;;;;;;;;;;;20.50;59.90;;;15.45;99.27;95903.19;4986123;28;19913;-53
2023/09/28 07:13:29;;;;;;;;;;;20.70;59.60;;;15.64;99.96;95897.84;4992256;28;19909;-48
2023/09/28 07:15:57;;;;;;;;;;;20.90;59.40;;;15.87;98.73;95900.78;4991412;28;19909;-47
2023/09/28 07:18:23;;;;;;;;;;;21.20;59.30;;;16.08;94.59;95904.78;4992466;28;19913;-49
2023/09/28 07:20:50;;;;;;;;;;;21.40;59.00;;;16.34;92.41;95901.69;4991932;28;19913;-47
2023/09/28 07:23:16;;;;;;;;;;;21.70;58.80;;;16.66;92.99;95906.28;5006664;28;20409;-46
2023/09/28 07:25:42;;;;;;;;;;;22.00;58.40;;;16.91;89.77;95902.38;4994723;28;19909;-49
2023/09/28 07:28:08;;;;;;;;;;;22.20;58.30;;;16.97;87.02;95903.88;4991345;28;19948;-47
2023/09/28 07:30:35;;;;;;;;;;;22.20;58.10;;;16.98;87.32;95905.47;4991743;28;19909;-48
2023/09/28 07:33:01;;;;;;;;;;;22.10;57.90;;;17.00;86.12;95910.56;4991567;28;20287;-51
2023/09/28 07:35:27;;;;;;;;;;;22.20;57.70;;;17.32;86.66;95904.28;4991526;28;19916;-48
2023/09/28 07:37:53;;;;;;;;;;;22.50;57.50;;;17.63;84.94;95917.16;4991917;28;19913;-47
2023/09/28 07:40:24;;;;;;;;;;;22.90;57.20;;;18.02;77.23;95922.00;4990322;28;19963;-48
2023/09/28 07:42:50;;;;;;;;;;;23.30;56.90;;;18.41;74.11;95918.66;4990454;28;19921;-47
2023/09/28 07:45:18;;;;;;;;;;;23.80;56.60;;;18.81;74.31;95921.50;4995439;28;19909;-47
2023/09/28 07:47:44;;;;;;;;;;;24.10;56.20;;;19.25;73.34;95917.13;4990975;28;19918;-51
2023/09/28 07:50:11;;;;;;;;;;;24.60;55.80;;;19.58;69.52;95930.25;4991669;28;19945;-47
2023/09/28 07:52:38;;;;;;;;;;;25.00;55.40;;;20.04;68.51;95931.66;4992955;28;19913;-49
2023/09/28 07:55:05;;;;;;;;;;;25.40;54.90;;;20.50;65.63;95938.38;4991683;28;19956;-47
2023/09/28 07:57:32;;;;;;;;;;;25.80;54.60;;;20.88;62.78;95935.81;4990703;28;19913;-49
2023/09/28 07:59:59;;;;;;;;;;;26.20;54.30;;;21.21;61.77;95935.22;4991236;28;20039;-49
2023/09/28 08:02:25;;;;;;;;;;;26.60;53.80;;;21.53;59.75;95938.47;4991751;28;19920;-49
2023/09/28 08:04:53;;;;;;;;;;;27.00;53.40;;;21.70;59.05;95939.19;4984599;28;19916;-50
2023/09/28 08:07:19;;;;;;;;;;;27.30;53.00;;;21.73;58.05;95939.66;4991260;28;19960;-51
2023/09/28 08:09:47;;;;;;;;;;;27.60;52.70;;;21.91;57.88;95933.81;4989964;28;19913;-51
2023/09/28 08:12:13;;;;;;;;;;;27.80;52.30;;;22.12;57.07;95944.69;4990607;28;20136;-54
2023/09/28 08:14:39;;;;;;;;;;;27.90;52.00;;;22.33;56.59;95943.94;4990159;28;19910;-48
2023/09/28 08:17:06;;;;;;;;;;;28.10;51.60;;;22.53;53.93;95945.84;4989819;28;19910;-52
2023/09/28 08:19:31;;;;;;;;;;;28.30;51.10;;;22.67;53.84;95942.06;4990728;28;20004;-53
2023/09/28 08:21:57;;;;;;;;;;;28.60;50.70;;;23.00;54.10;95932.03;4989936;28;20348;-54
2023/09/28 08:24:23;;;;;;;;;;;28.80;50.30;;;23.36;53.56;95932.44;4989546;28;19914;-49
2023/09/28 08:26:49;;;;;;;;;;;29.10;49.90;;;23.75;52.13;95929.09;4990284;28;19913;-55
2023/09/28 08:29:15;;;;;;;;;;;29.40;49.60;;;23.89;51.87;95934.16;4989895;28;19913;-48
2023/09/28 08:31:41;;;;;;;;;;;29.60;49.30;;;23.89;50.75;95939.59;4990408;28;19944;-50
2023/09/28 08:34:08;;;;;;;;;;;29.70;49.00;;;24.04;51.74;95929.16;4993703;28;20006;-49
2023/09/28 08:36:34;;;;;;;;;;;29.80;48.60;;;24.14;50.26;95934.13;5008508;28;20042;-52
2023/09/28 08:39:00;;;;;;;;;;;30.00;48.40;;;24.43;50.58;95933.06;5010593;28;19992;-51
2023/09/28 08:41:40;;;;;;;;;;;30.10;47.90;;;24.62;50.42;95930.50;5007906;28;19924;-51
2023/09/28 08:44:07;;;;;;;;;;;30.40;47.70;;;24.69;49.23;95929.91;4997715;28;19916;-49
2023/09/28 08:46:38;;;;;;;;;;;30.70;47.00;;;24.64;48.30;95930.97;5007360;28;19909;-53
2023/09/28 08:49:07;;;;;;;;;;;30.90;46.60;;;24.99;48.29;95933.06;4995757;28;19950;-49
2023/09/28 08:51:37;;;;;;;;;;;31.00;46.50;;;24.94;47.13;95941.47;5008238;28;19913;-48
2023/09/28 08:54:05;;;;;;;;;;;31.10;46.40;;;25.16;46.63;95934.69;5013076;28;19910;-50
2023/09/28 08:56:39;;;;;;;;;;;31.20;46.20;;;25.31;46.92;95933.91;5012821;28;19909;-49
2023/09/28 08:59:06;;;;;;;;;;;31.30;46.10;;;25.38;46.24;95925.13;5005534;28;19908;-53
2023/09/28 09:01:33;;;;;;;;;;;31.20;45.80;;;25.45;46.27;95928.06;5014157;28;20284;-51
2023/09/28 09:03:59;;;;;;;;;;;31.20;45.60;;;25.48;47.42;95931.97;5010276;28;19945;-50
2023/09/28 09:06:29;;;;;;;;;;;31.20;45.50;;;25.60;46.85;95927.25;5014509;28;20272;-53
2023/09/28 09:09:01;;;;;;;;;;;31.20;45.30;;;25.80;47.22;95935.50;5014405;28;19913;-51
2023/09/28 09:11:33;;;;;;;;;;;31.50;45.20;;;25.99;46.33;95930.13;5010899;28;19908;-48
2023/09/28 09:14:00;;;;;;;;;;;31.80;45.00;;;26.15;46.25;95926.56;5013381;28;19909;-49
2023/09/28 09:16:29;;;;;;;;;;;32.10;44.70;;;26.49;45.95;95935.91;5012529;28;19913;-51
2023/09/28 09:18:58;;;;;;;;;;;32.40;44.40;;;26.75;44.69;95930.56;5000716;28;20355;-52
2023/09/28 09:21:24;;;;;;;;;;;32.80;44.10;;;26.89;43.55;95921.06;5004761;28;20354;-54
2023/09/28 09:24:05;;;;;;;;;;;33.10;43.80;;;27.16;42.67;95920.03;5012013;28;19908;-51
2023/09/28 09:26:43;;;;;;;;;;;33.40;43.50;;;27.19;43.04;95907.59;5014034;28;20023;-53
2023/09/28 09:29:10;;;;;;;;;;;33.70;43.20;;;27.44;42.31;95913.50;5010430;28;19986;-52
2023/09/28 09:31:39;;;;;;;;;;;34.00;42.80;;;27.62;42.44;95919.25;5013610;28;19915;-52
2023/09/28 09:34:12;;;;;;;;;;;34.20;42.40;;;27.93;41.85;95918.22;5009851;28;19909;-49
2023/09/28 09:36:39;;;;;;;;;;;34.40;42.10;;;28.23;41.10;95922.91;5012478;28;19909;-54
2023/09/28 09:39:06;;;;;;;;;;;34.60;41.90;;;28.40;39.50;95914.19;5013599;28;20283;-50
2023/09/28 09:41:46;;;;;;;;;;;34.80;41.70;;;28.27;39.35;95921.81;5009663;28;19924;-52
2023/09/28 09:44:20;;;;;;;;;;;35.00;41.20;;;28.36;38.59;95924.25;5008720;28;19917;-51
2023/09/28 09:46:51;;;;;;;;;;;35.20;40.70;;;28.46;40.30;95931.88;5005985;28;19916;-53
2023/09/28 09:49:18;;;;;;;;;;;35.30;40.40;;;28.19;38.71;95917.41;5013428;28;19980;-54
2023/09/28 09:51:47;;;;;;;;;;;35.40;40.10;;;27.99;37.43;95929.63;5010628;28;19918;-48
2023/09/28 09:54:19;;;;;;;;;;;35.40;39.90;;;28.13;37.58;95925.13;5012990;28;19913;-51
2023/09/28 09:56:48;;;;;;;;;;;35.50;39.70;;;28.47;37.85;95922.50;5012392;28;19913;-49
2023/09/28 09:59:17;;;;;;;;;;;35.70;39.60;;;28.84;37.44;95919.03;5010540;28;20497;-51
2023/09/28 10:01:53;;;;;;;;;;;35.90;39.40;;;29.17;37.24;95915.47;5011766;28;19924;-51
2023/09/28 10:04:23;;;;;;;;;;;36.10;39.10;;;29.38;35.79;95917.63;5010481;28;19913;-54
2023/09/28 10:07:00;;;;;;;;;;;36.30;38.80;;;29.69;35.69;95908.13;4996026;28;20423;-55
2023/09/28 10:09:26;;;;;;;;;;;36.50;38.40;;;29.77;35.62;95910.91;5012848;28;19909;-53
2023/09/28 10:11:52;;;;;;;;;;;36.70;37.90;;;29.96;35.08;95910.69;5001451;28;19909;-56
2023/09/28 10:14:21;;;;;;;;;;;36.90;37.80;;;29.87;35.30;95901.97;4986928;28;19920;-50
2023/09/28 10:16:53;;;;;;;;;;;37.20;37.60;;;30.02;35.02;95902.84;5001024;28;20004;-56
2023/09/28 10:19:23;;;;;;;;;;;37.30;37.20;;;29.93;34.77;95894.97;5012174;28;20375;-54
2023/09/28 10:21:51;;;;;;;;;;;37.60;37.10;;;29.90;35.45;95896.50;5010343;28;19924;-57
2023/09/28 10:24:20;;;;;;;;;;;37.60;36.50;;;30.24;34.54;95898.28;5012410;28;19908;-56
2023/09/28 10:26:51;;;;;;;;;;;37.80;36.40;;;29.83;34.47;95890.94;5012313;28;19917;-55
2023/09/28 10:29:28;;;;;;;;;;;37.90;36.10;;;29.85;34.39;95893.34;5009671;28;19952;-50
2023/09/28 10:31:54;;;;;;;;;;;37.90;35.80;;;30.20;34.64;95892.78;5012755;28;20036;-56
2023/09/28 10:34:22;;;;;;;;;;;38.00;35.70;;;30.34;33.56;95890.13;5010021;28;19927;-51
2023/09/28 10:37:11;;;;;;;;;;;38.20;35.80;;;30.16;34.70;95884.50;4995208;28;19974;-49
2023/09/28 10:39:38;;;;;;;;;;;38.20;35.50;;;30.22;35.16;95890.44;4987600;28;19936;-49
2023/09/28 10:42:10;;;;;;;;;;;38.40;35.40;;;30.22;33.54;95889.66;5017676;23;19921;-52
2023/09/28 10:44:46;;;;;;;;;;;38.50;35.20;;;30.36;31.65;95889.72;5015118;28;20393;-50
2023/09/28 10:47:12;;;;;;;;;;;38.60;34.80;;;30.64;32.81;95884.34;5015905;28;20395;-54
2023/09/28 10:49:39;;;;;;;;;;;38.70;34.60;;;30.69;33.71;95883.19;5021515;28;19958;-44
2023/09/28 10:52:09;;;;;;;;;;;38.90;34.30;;;30.80;33.63;95895.00;5018956;28;19931;-49
2023/09/28 10:54:39;;;;;;;;;;;39.00;34.10;;;30.84;32.41;95889.56;5019938;28;19909;-49
2023/09/28 10:57:04;;;;;;;;;;;39.20;34.00;;;30.74;32.83;95895.75;5020322;28;19912;-50
2023/09/28 10:59:30;;;;;;;;;;;39.20;33.70;;;31.02;32.94;95886.81;5038208;28;19984;-49
2023/09/28 11:01:56;;;;;;;;;;;39.40;33.60;;;31.37;32.38;95888.88;5023444;28;19913;-49
2023/09/28 11:04:22;;;;;;;;;;;39.60;33.40;;;31.47;31.24;95873.56;5026294;28;19951;-49
2023/09/28 11:06:49;;;;;;;;;;;39.70;33.10;;;31.41;31.00;95867.66;5020580;28;19961;-54
2023/09/28 11:09:19;;;;;;;;;;;39.90;32.90;;;31.21;30.61;95878.19;5015568;28;20375;-52
2023/09/28 11:11:45;;;;;;;;;;;40.00;32.70;;;30.97;30.67;95871.50;5028709;28;19912;-53
2023/09/28 11:14:12;;;;;;;;;;;40.10;32.50;;;31.50;30.29;95870.78;5027280;28;19916;-49